createdAt,value
2023-05-12T00:01:55.412Z,17.12
2023-05-12T00:04:22.147Z,17.10
2023-05-12T00:06:48.937Z,17.04
2023-05-12T00:09:15.556Z,17.10
2023-05-12T00:11:42.270Z,17.06
2023-05-12T00:14:09.020Z,17.03
2023-05-12T00:16:35.933Z,17.02
2023-05-12T00:19:02.642Z,17.06
2023-05-12T00:21:29.406Z,17.06
2023-05-12T00:23:56.397Z,16.99
2023-05-12T00:26:23.059Z,16.96
2023-05-12T00:28:49.823Z,17.06
2023-05-12T00:31:16.632Z,17.03
2023-05-12T00:33:43.279Z,17.03
2023-05-12T00:36:10.069Z,17.03
2023-05-12T00:38:37.390Z,17.00
2023-05-12T00:41:04.663Z,16.94
2023-05-12T00:43:31.875Z,16.93
2023-05-12T00:45:59.065Z,16.93
2023-05-12T00:48:26.275Z,16.93
2023-05-12T00:50:54.707Z,16.90
2023-05-12T00:53:21.574Z,16.89
2023-05-12T00:55:48.254Z,16.85
2023-05-12T00:58:15.558Z,16.84
2023-05-12T01:00:42.228Z,16.84
2023-05-12T01:03:09.049Z,16.86
2023-05-12T01:06:04.910Z,16.85
2023-05-12T01:08:32.695Z,16.85
2023-05-12T01:10:59.985Z,16.90
2023-05-12T01:13:27.990Z,16.98
2023-05-12T01:15:56.629Z,17.01
2023-05-12T01:18:24.282Z,17.04
2023-05-12T01:20:53.584Z,17.05
2023-05-12T01:23:27.302Z,17.00
2023-05-12T01:25:55.002Z,17.02
2023-05-12T01:28:21.814Z,17.05
2023-05-12T01:30:50.406Z,17.07
2023-05-12T01:33:17.164Z,17.07
2023-05-12T01:35:43.821Z,17.08
2023-05-12T01:38:10.513Z,17.05
2023-05-12T01:40:39.604Z,17.02
2023-05-12T01:43:06.568Z,17.04
2023-05-12T01:45:33.466Z,17.06
2023-05-12T01:48:00.343Z,17.01
2023-05-12T01:50:27.524Z,17.00
2023-05-12T01:52:54.917Z,17.05
2023-05-12T01:55:22.108Z,17.00
2023-05-12T01:57:55.264Z,16.97
2023-05-12T02:00:22.771Z,17.01
2023-05-12T02:02:52.470Z,17.02
2023-05-12T02:05:19.279Z,17.01
2023-05-12T02:07:49.122Z,16.95
2023-05-12T02:10:16.640Z,16.98
2023-05-12T02:12:43.743Z,16.96
2023-05-12T02:15:10.914Z,16.95
2023-05-12T02:17:42.256Z,16.91
2023-05-12T02:20:11.937Z,16.91
2023-05-12T02:22:38.571Z,16.94
2023-05-12T02:25:05.774Z,16.91
2023-05-12T02:27:32.697Z,16.90
2023-05-12T02:29:59.448Z,16.88
2023-05-12T02:32:28.186Z,16.89
2023-05-12T02:34:58.071Z,16.89
2023-05-12T02:37:24.996Z,16.88
2023-05-12T02:39:51.645Z,16.90
2023-05-12T02:42:18.826Z,16.84
2023-05-12T02:44:45.564Z,16.84
2023-05-12T02:47:12.247Z,16.78
2023-05-12T02:49:38.987Z,16.76
2023-05-12T02:52:06.334Z,16.71
2023-05-12T02:54:33.099Z,16.70
2023-05-12T02:57:04.819Z,16.68
2023-05-12T02:59:31.541Z,16.69
2023-05-12T03:01:58.240Z,16.66
2023-05-12T03:04:24.896Z,16.65
2023-05-12T03:06:51.683Z,16.70
2023-05-12T03:09:18.459Z,16.66
2023-05-12T03:11:45.147Z,16.67
2023-05-12T03:14:11.750Z,16.67
2023-05-12T03:16:38.605Z,16.64
2023-05-12T03:19:05.785Z,16.64
2023-05-12T03:21:32.654Z,16.58
2023-05-12T03:23:59.342Z,16.57
2023-05-12T03:26:26.160Z,16.61
2023-05-12T03:28:52.924Z,16.57
2023-05-12T03:31:19.693Z,16.50
2023-05-12T03:33:46.847Z,16.50
2023-05-12T03:36:13.616Z,16.57
2023-05-12T03:38:40.384Z,16.65
2023-05-12T03:41:07.711Z,16.70
2023-05-12T03:43:35.916Z,16.71
2023-05-12T03:46:03.843Z,16.79
2023-05-12T03:48:30.824Z,16.79
2023-05-12T03:50:57.559Z,16.77
2023-05-12T03:53:24.227Z,16.75
2023-05-12T03:55:51.101Z,16.77
2023-05-12T03:58:18.210Z,16.82
2023-05-12T04:00:46.754Z,16.81
2023-05-12T04:03:13.486Z,16.80
2023-05-12T04:05:40.302Z,16.78
2023-05-12T04:08:07.080Z,16.75
2023-05-12T04:10:43.275Z,16.72
2023-05-12T04:13:09.872Z,16.72
2023-05-12T04:15:36.622Z,16.64
2023-05-12T04:18:03.909Z,16.67
2023-05-12T04:20:30.572Z,16.69
2023-05-12T04:22:57.183Z,16.66
2023-05-12T04:25:23.815Z,16.71
2023-05-12T04:27:50.479Z,16.71
2023-05-12T04:30:17.060Z,16.68
2023-05-12T04:32:44.601Z,16.65
2023-05-12T04:35:11.601Z,16.66
2023-05-12T04:37:38.832Z,16.70
2023-05-12T04:40:07.302Z,16.67
2023-05-12T04:42:34.320Z,16.69
2023-05-12T04:45:01.182Z,16.75
2023-05-12T04:47:28.557Z,16.77
2023-05-12T04:49:55.199Z,16.86
2023-05-12T04:52:23.979Z,16.88
2023-05-12T04:54:52.029Z,16.87
2023-05-12T04:57:18.763Z,16.94
2023-05-12T04:59:45.541Z,16.92
2023-05-12T05:02:12.742Z,16.91
2023-05-12T05:04:39.561Z,16.94
2023-05-12T05:07:06.324Z,17.00
2023-05-12T05:09:35.592Z,16.99
2023-05-12T05:12:03.234Z,16.97
2023-05-12T05:14:29.934Z,16.99
2023-05-12T05:16:57.007Z,16.99
2023-05-12T05:19:36.446Z,17.01
2023-05-12T05:22:11.727Z,17.04
2023-05-12T05:24:38.402Z,17.00
2023-05-12T05:27:05.421Z,16.99
2023-05-12T05:29:32.118Z,16.99
2023-05-12T05:31:58.724Z,16.93
2023-05-12T05:34:25.528Z,16.94
2023-05-12T05:36:52.312Z,16.92
2023-05-12T05:39:18.978Z,16.98
2023-05-12T05:41:46.453Z,17.05
2023-05-12T05:44:13.805Z,17.11
2023-05-12T05:46:40.532Z,17.16
2023-05-12T05:49:07.264Z,17.19
2023-05-12T05:51:34.105Z,17.24
2023-05-12T05:54:00.762Z,17.24
2023-05-12T05:56:27.485Z,17.30
2023-05-12T05:58:54.240Z,17.34
2023-05-12T06:01:20.927Z,17.35
2023-05-12T06:03:47.686Z,17.35
2023-05-12T06:06:15.938Z,17.39
2023-05-12T06:08:42.565Z,17.35
2023-05-12T06:11:09.238Z,17.31
2023-05-12T06:13:36.480Z,17.40
2023-05-12T06:16:03.559Z,17.39
2023-05-12T06:18:30.435Z,17.36
2023-05-12T06:20:57.209Z,17.46
2023-05-12T06:23:23.929Z,17.49
2023-05-12T06:25:50.793Z,17.49
2023-05-12T06:28:17.436Z,17.53
2023-05-12T06:30:44.341Z,17.53
2023-05-12T06:33:11.081Z,17.47
2023-05-12T06:35:37.761Z,17.50
2023-05-12T06:38:06.014Z,17.54
2023-05-12T06:40:33.046Z,17.57
2023-05-12T06:42:59.714Z,17.59
2023-05-12T06:45:26.671Z,17.51
2023-05-12T06:47:53.369Z,17.63
2023-05-12T06:50:20.196Z,17.72
2023-05-12T06:52:51.704Z,17.88
2023-05-12T06:55:20.607Z,17.80
2023-05-12T06:57:47.811Z,17.89
2023-05-12T07:00:14.848Z,17.88
2023-05-12T07:02:41.847Z,17.81
2023-05-12T07:05:08.774Z,17.80
2023-05-12T07:07:36.011Z,17.88
2023-05-12T07:10:02.656Z,17.85
2023-05-12T07:12:29.455Z,17.71
2023-05-12T07:14:56.125Z,17.94
2023-05-12T07:17:22.814Z,17.94
2023-05-12T07:19:49.475Z,18.04
2023-05-12T07:22:16.211Z,18.17
2023-05-12T07:24:43.338Z,18.00
2023-05-12T07:27:10.010Z,17.91
2023-05-12T07:29:36.655Z,17.90
2023-05-12T07:32:03.453Z,17.90
2023-05-12T07:34:32.589Z,17.84
2023-05-12T07:37:02.288Z,17.95
2023-05-12T07:39:30.914Z,18.11
2023-05-12T07:41:58.265Z,18.23
2023-05-12T07:44:26.072Z,18.47
2023-05-12T07:46:52.804Z,18.64
2023-05-12T07:49:19.431Z,18.88
2023-05-12T07:51:46.043Z,19.30
2023-05-12T07:54:13.412Z,19.24
2023-05-12T07:56:40.130Z,19.48
2023-05-12T07:59:07.271Z,19.36
2023-05-12T08:01:34.819Z,19.24
2023-05-12T08:04:01.651Z,19.39
2023-05-12T08:06:28.491Z,19.79
2023-05-12T08:08:58.205Z,19.53
2023-05-12T08:11:26.037Z,19.19
2023-05-12T08:13:53.137Z,19.35
2023-05-12T08:16:19.984Z,19.56
2023-05-12T08:18:46.714Z,19.56
2023-05-12T08:21:13.396Z,19.33
2023-05-12T08:23:40.262Z,19.50
2023-05-12T08:26:06.947Z,19.45
2023-05-12T08:28:34.217Z,19.41
2023-05-12T08:31:04.112Z,19.30
2023-05-12T08:33:31.587Z,18.91
2023-05-12T08:35:58.437Z,18.58
2023-05-12T08:38:25.227Z,18.46
2023-05-12T08:41:10.469Z,18.34
2023-05-12T08:43:45.281Z,18.28
2023-05-12T08:46:13.166Z,18.38
2023-05-12T08:48:40.764Z,18.79
2023-05-12T08:51:11.696Z,19.01
2023-05-12T08:53:42.604Z,19.35
2023-05-12T08:58:42.893Z,20.37
2023-05-12T09:01:11.637Z,20.56
2023-05-12T09:03:38.884Z,20.88
2023-05-12T09:06:06.630Z,21.15
2023-05-12T09:08:34.965Z,21.34
2023-05-12T09:11:02.461Z,21.29
2023-05-12T09:13:38.347Z,21.11
2023-05-12T09:16:11.271Z,20.42
2023-05-12T09:18:56.476Z,20.68
2023-05-12T09:21:24.134Z,20.58
2023-05-12T09:23:58.757Z,20.67
2023-05-12T09:26:27.380Z,21.41
2023-05-12T09:28:55.909Z,22.08
2023-05-12T09:31:24.801Z,22.94
2023-05-12T09:33:52.310Z,22.95
2023-05-12T09:36:24.051Z,23.24
2023-05-12T09:39:08.355Z,23.51
2023-05-12T09:41:35.563Z,22.60
2023-05-12T09:44:02.812Z,22.07
2023-05-12T09:46:29.578Z,21.74
2023-05-12T09:49:00.173Z,21.95
2023-05-12T09:51:27.403Z,21.94
2023-05-12T09:53:54.104Z,22.17
2023-05-12T09:56:22.028Z,22.53
2023-05-12T09:58:50.102Z,22.55
2023-05-12T10:01:23.356Z,22.25
2023-05-12T10:03:53.004Z,22.34
2023-05-12T10:06:40.745Z,22.74
2023-05-12T10:09:21.726Z,22.76
2023-05-12T10:11:53.515Z,23.13
2023-05-12T10:14:22.868Z,22.57
2023-05-12T10:16:50.286Z,23.00
2023-05-12T10:19:18.653Z,23.02
2023-05-12T10:21:46.957Z,22.49
2023-05-12T10:24:17.291Z,22.06
2023-05-12T10:26:44.730Z,21.67
2023-05-12T10:29:12.740Z,21.70
2023-05-12T10:31:40.004Z,21.87
2023-05-12T10:34:06.897Z,22.31
2023-05-12T10:36:47.496Z,23.20
2023-05-12T10:39:15.529Z,24.07
2023-05-12T10:41:45.483Z,24.59
2023-05-12T10:44:12.456Z,24.33
2023-05-12T10:46:39.201Z,23.97
2023-05-12T10:49:05.815Z,23.57
2023-05-12T10:51:35.137Z,23.08
2023-05-12T10:54:04.480Z,23.03
2023-05-12T10:56:43.228Z,22.39
2023-05-12T10:59:20.266Z,22.45
2023-05-12T11:02:06.612Z,22.51
2023-05-12T11:04:43.970Z,22.97
2023-05-12T11:07:14.355Z,23.44
2023-05-12T11:09:56.855Z,24.59
2023-05-12T11:12:27.310Z,24.59
2023-05-12T11:14:54.240Z,24.72
2023-05-12T11:17:20.906Z,24.99
2023-05-12T11:19:49.520Z,24.94
2023-05-12T11:22:21.458Z,24.86
2023-05-12T11:24:48.850Z,25.32
2023-05-12T11:27:17.549Z,25.64
2023-05-12T11:29:47.041Z,25.90
2023-05-12T11:32:15.681Z,25.92
2023-05-12T11:34:42.549Z,25.31
2023-05-12T11:37:09.282Z,24.76
2023-05-12T11:39:36.438Z,24.08
2023-05-12T11:42:13.608Z,23.82
2023-05-12T11:44:48.905Z,23.27
2023-05-12T11:47:16.967Z,23.05
2023-05-12T11:49:54.984Z,22.81
2023-05-12T11:52:23.588Z,22.53
2023-05-12T11:54:52.685Z,22.47
2023-05-12T11:57:35.061Z,22.23
2023-05-12T12:00:07.859Z,22.25
2023-05-12T12:02:39.642Z,21.99
2023-05-12T12:05:17.601Z,21.97
2023-05-12T12:07:44.897Z,22.04
2023-05-12T12:10:16.852Z,21.96
2023-05-12T12:12:44.611Z,21.90
2023-05-12T12:15:12.038Z,22.40
2023-05-12T12:17:39.848Z,22.79
2023-05-12T12:20:08.194Z,23.71
2023-05-12T12:22:35.312Z,24.14
2023-05-12T12:25:03.117Z,24.15
2023-05-12T12:27:30.205Z,24.07
2023-05-12T12:29:56.954Z,24.18
2023-05-12T12:32:23.724Z,24.12
2023-05-12T12:34:50.492Z,23.99
2023-05-12T12:37:17.600Z,23.91
2023-05-12T12:39:44.414Z,23.83
2023-05-12T12:42:11.065Z,23.40
2023-05-12T12:44:37.719Z,23.43
2023-05-12T12:47:05.006Z,23.45
2023-05-12T12:49:31.800Z,23.49
2023-05-12T12:51:58.467Z,23.63
2023-05-12T12:54:27.364Z,23.43
2023-05-12T12:56:55.466Z,23.54
2023-05-12T12:59:22.406Z,23.71
2023-05-12T13:01:49.239Z,23.34
2023-05-12T13:04:17.118Z,23.08
2023-05-12T13:06:43.800Z,22.79
2023-05-12T13:09:10.792Z,22.39
2023-05-12T13:11:37.568Z,22.13
2023-05-12T13:14:04.890Z,22.01
2023-05-12T13:16:31.696Z,21.52
2023-05-12T13:18:58.806Z,21.38
2023-05-12T13:21:25.751Z,21.12
2023-05-12T13:23:52.385Z,20.58
2023-05-12T13:26:19.025Z,20.73
2023-05-12T13:28:45.693Z,20.40
2023-05-12T13:31:12.584Z,20.25
2023-05-12T13:33:39.321Z,20.11
2023-05-12T13:36:06.401Z,20.27
2023-05-12T13:38:33.930Z,20.34
2023-05-12T13:41:00.783Z,20.42
2023-05-12T13:43:27.408Z,20.59
2023-05-12T13:45:54.200Z,20.40
2023-05-12T13:48:20.943Z,19.95
2023-05-12T13:50:47.618Z,20.09
2023-05-12T13:53:14.209Z,20.27
2023-05-12T13:55:41.301Z,20.20
2023-05-12T13:58:07.976Z,20.47
2023-05-12T14:00:34.738Z,20.36
2023-05-12T14:03:01.740Z,20.49
2023-05-12T14:05:28.772Z,20.57
2023-05-12T14:07:55.669Z,21.11
2023-05-12T14:10:22.367Z,21.47
2023-05-12T14:12:49.287Z,21.60
2023-05-12T14:15:28.916Z,21.48
2023-05-12T14:18:02.652Z,21.30
2023-05-12T14:20:29.317Z,21.36
2023-05-12T14:22:55.976Z,21.28
2023-05-12T14:25:23.862Z,21.25
2023-05-12T14:27:51.191Z,21.41
2023-05-12T14:30:17.939Z,21.36
2023-05-12T14:32:44.672Z,21.22
2023-05-12T14:35:13.076Z,21.34
2023-05-12T14:37:39.778Z,21.41
2023-05-12T14:40:07.365Z,21.54
2023-05-12T14:42:34.094Z,21.06
2023-05-12T14:45:00.790Z,21.42
2023-05-12T14:47:27.410Z,21.41
2023-05-12T14:49:54.436Z,21.33
2023-05-12T14:52:21.133Z,21.41
2023-05-12T14:54:47.793Z,21.35
2023-05-12T14:57:14.475Z,21.12
2023-05-12T14:59:41.193Z,20.89
2023-05-12T15:02:07.990Z,20.79
2023-05-12T15:04:34.785Z,20.75
2023-05-12T15:07:01.455Z,20.86
2023-05-12T15:09:28.107Z,21.05
2023-05-12T15:11:55.056Z,21.06
2023-05-12T15:14:21.911Z,20.97
2023-05-12T15:16:48.623Z,20.68
2023-05-12T15:19:15.564Z,20.92
2023-05-12T15:21:42.388Z,20.89
2023-05-12T15:24:09.058Z,21.05
2023-05-12T15:26:38.227Z,21.27
2023-05-12T15:29:07.245Z,21.14
2023-05-12T15:31:35.036Z,21.01
2023-05-12T15:34:01.771Z,20.96
2023-05-12T15:36:28.481Z,21.27
2023-05-12T15:38:55.220Z,21.23
2023-05-12T15:41:22.094Z,21.18
2023-05-12T15:43:48.748Z,21.46
2023-05-12T15:46:15.439Z,21.38
2023-05-12T15:48:42.156Z,21.80
2023-05-12T15:51:08.797Z,21.76
2023-05-12T15:53:35.500Z,21.66
2023-05-12T15:56:03.175Z,21.70
2023-05-12T15:58:31.184Z,21.67
2023-05-12T16:00:57.885Z,21.66
2023-05-12T16:03:24.916Z,21.79
2023-05-12T16:05:51.959Z,21.81
2023-05-12T16:08:18.855Z,21.85
2023-05-12T16:10:45.599Z,21.87
2023-05-12T16:13:13.670Z,21.75
2023-05-12T16:15:40.500Z,21.82
2023-05-12T16:18:10.195Z,20.96
2023-05-12T16:20:37.770Z,20.79
2023-05-12T16:23:04.634Z,20.41
2023-05-12T16:25:31.375Z,20.07
2023-05-12T16:27:58.125Z,20.03
2023-05-12T16:30:24.989Z,19.78
2023-05-12T16:32:51.768Z,19.69
2023-05-12T16:35:18.614Z,19.81
2023-05-12T16:37:45.442Z,19.84
2023-05-12T16:40:12.249Z,19.77
2023-05-12T16:42:39.009Z,19.56
2023-05-12T16:45:06.363Z,19.45
2023-05-12T16:47:33.044Z,19.62
2023-05-12T16:49:59.964Z,19.31
2023-05-12T16:52:27.008Z,19.40
2023-05-12T16:54:55.992Z,19.34
2023-05-12T16:57:23.235Z,19.42
2023-05-12T16:59:49.937Z,19.33
2023-05-12T17:02:16.660Z,19.47
2023-05-12T17:04:44.642Z,19.32
2023-05-12T17:07:11.453Z,19.29
2023-05-12T17:09:38.217Z,19.39
2023-05-12T17:12:06.691Z,19.35
2023-05-12T17:14:34.777Z,19.36
2023-05-12T17:17:01.448Z,19.16
2023-05-12T17:19:28.407Z,19.19
2023-05-12T17:21:55.072Z,19.09
2023-05-12T17:24:21.817Z,19.06
2023-05-12T17:26:48.435Z,19.10
2023-05-12T17:29:15.176Z,19.13
2023-05-12T17:31:41.957Z,18.99
2023-05-12T17:34:08.871Z,18.95
2023-05-12T17:36:35.651Z,19.11
2023-05-12T17:39:02.393Z,19.25
2023-05-12T17:41:29.427Z,19.23
2023-05-12T17:43:56.183Z,19.10
2023-05-12T17:46:23.046Z,19.05
2023-05-12T17:48:49.988Z,19.05
2023-05-12T17:51:17.023Z,19.18
2023-05-12T17:53:43.862Z,19.20
2023-05-12T17:56:11.330Z,19.16
2023-05-12T17:58:37.979Z,19.21
2023-05-12T18:01:04.753Z,19.25
2023-05-12T18:03:31.662Z,19.46
2023-05-12T18:05:58.425Z,19.36
2023-05-12T18:08:25.080Z,19.19
2023-05-12T18:10:51.783Z,19.27
2023-05-12T18:13:18.624Z,19.03
2023-05-12T18:15:45.284Z,19.00
2023-05-12T18:18:12.424Z,18.99
2023-05-12T18:20:39.161Z,18.60
2023-05-12T18:23:05.863Z,18.60
2023-05-12T18:25:32.533Z,18.68
2023-05-12T18:27:59.277Z,18.49
2023-05-12T18:30:26.054Z,18.42
2023-05-12T18:32:52.862Z,18.32
2023-05-12T18:35:19.822Z,18.34
2023-05-12T18:37:46.728Z,18.50
2023-05-12T18:40:13.390Z,18.43
2023-05-12T18:42:40.017Z,18.47
2023-05-12T18:45:07.204Z,18.48
2023-05-12T18:47:34.274Z,18.43
2023-05-12T18:50:01.009Z,18.25
2023-05-12T18:52:27.719Z,18.22
2023-05-12T18:54:54.349Z,18.24
2023-05-12T18:57:21.110Z,18.19
2023-05-12T18:59:47.723Z,18.21
2023-05-12T19:02:14.397Z,18.17
2023-05-12T19:04:41.178Z,18.16
2023-05-12T19:07:09.864Z,18.08
2023-05-12T19:09:37.087Z,18.07
2023-05-12T19:12:05.998Z,17.99
2023-05-12T19:14:32.988Z,17.93
2023-05-12T19:16:59.916Z,17.92
2023-05-12T19:19:26.540Z,17.95
2023-05-12T19:21:53.125Z,17.82
2023-05-12T19:24:19.917Z,17.89
2023-05-12T19:26:46.520Z,17.80
2023-05-12T19:29:13.240Z,17.95
2023-05-12T19:31:40.038Z,18.00
2023-05-12T19:34:07.153Z,17.98
2023-05-12T19:36:34.359Z,17.82
2023-05-12T19:39:01.135Z,17.90
2023-05-12T19:41:29.713Z,17.91
2023-05-12T19:43:56.470Z,17.88
2023-05-12T19:46:23.301Z,17.90
2023-05-12T19:48:51.186Z,17.89
2023-05-12T19:51:18.491Z,17.95
2023-05-12T19:53:45.439Z,17.84
2023-05-12T19:56:12.300Z,17.91
2023-05-12T19:58:39.227Z,17.76
2023-05-12T20:01:06.201Z,17.87
2023-05-12T20:03:33.183Z,17.88
2023-05-12T20:06:00.185Z,17.81
2023-05-12T20:08:27.105Z,17.85
2023-05-12T20:10:54.091Z,17.89
2023-05-12T20:13:20.984Z,17.93
2023-05-12T20:15:47.862Z,18.04
2023-05-12T20:18:15.709Z,18.03
2023-05-12T20:20:43.108Z,18.09
2023-05-12T20:23:09.833Z,18.05
2023-05-12T20:25:36.796Z,18.07
2023-05-12T20:28:03.866Z,18.07
2023-05-12T20:30:30.698Z,18.12
2023-05-12T20:32:57.425Z,18.17
2023-05-12T20:35:24.306Z,18.23
2023-05-12T20:37:51.285Z,18.23
2023-05-12T20:40:19.499Z,18.18
2023-05-12T20:42:46.961Z,18.21
2023-05-12T20:45:14.424Z,18.21
2023-05-12T20:47:41.963Z,18.18
2023-05-12T20:50:09.471Z,18.17
2023-05-12T20:52:37.017Z,18.19
2023-05-12T20:55:04.034Z,18.16
2023-05-12T20:57:30.803Z,18.04
2023-05-12T20:59:57.582Z,17.86
2023-05-12T21:02:25.300Z,17.84
2023-05-12T21:04:52.732Z,17.80
2023-05-12T21:07:20.257Z,17.81
2023-05-12T21:09:47.809Z,17.73
2023-05-12T21:12:14.528Z,17.74
2023-05-12T21:14:43.046Z,17.70
2023-05-12T21:17:10.495Z,17.72
2023-05-12T21:19:38.385Z,17.74
2023-05-12T21:22:06.881Z,17.67
2023-05-12T21:24:33.569Z,17.51
2023-05-12T21:27:04.061Z,17.47
2023-05-12T21:29:32.261Z,17.48
2023-05-12T21:31:59.385Z,17.51
2023-05-12T21:34:26.347Z,17.36
2023-05-12T21:36:53.189Z,17.41
2023-05-12T21:39:19.895Z,17.29
2023-05-12T21:41:46.580Z,17.39
2023-05-12T21:44:13.262Z,17.25
2023-05-12T21:46:40.144Z,17.20
2023-05-12T21:49:07.017Z,17.26
2023-05-12T21:51:33.949Z,17.24
2023-05-12T21:54:00.990Z,17.17
2023-05-12T21:56:27.606Z,17.07
2023-05-12T21:58:54.288Z,17.03
2023-05-12T22:01:20.969Z,17.02
2023-05-12T22:03:47.740Z,17.14
2023-05-12T22:06:14.435Z,16.90
2023-05-12T22:08:41.063Z,16.86
2023-05-12T22:11:07.872Z,16.90
2023-05-12T22:13:34.586Z,16.98
2023-05-12T22:16:01.281Z,17.00
2023-05-12T22:18:28.826Z,16.92
2023-05-12T22:20:55.447Z,17.04
2023-05-12T22:23:22.089Z,16.96
2023-05-12T22:25:48.741Z,16.99
2023-05-12T22:28:15.911Z,17.00
2023-05-12T22:30:42.588Z,17.05
2023-05-12T22:33:09.289Z,17.04
2023-05-12T22:35:35.921Z,16.99
2023-05-12T22:38:02.679Z,16.95
2023-05-12T22:40:30.190Z,17.02
2023-05-12T22:42:56.858Z,16.93
2023-05-12T22:45:23.491Z,16.88
2023-05-12T22:47:50.211Z,16.93
2023-05-12T22:50:17.140Z,16.94
2023-05-12T22:52:43.921Z,17.01
2023-05-12T22:55:11.087Z,17.01
2023-05-12T22:57:40.593Z,16.97
2023-05-12T23:00:07.605Z,16.98
2023-05-12T23:02:34.320Z,16.74
2023-05-12T23:05:01.209Z,16.72
2023-05-12T23:07:27.922Z,16.66
2023-05-12T23:09:54.543Z,16.68
2023-05-12T23:12:21.227Z,16.67
2023-05-12T23:14:47.823Z,16.74
2023-05-12T23:17:14.803Z,16.74
2023-05-12T23:19:41.467Z,16.70
2023-05-12T23:22:08.042Z,16.82
2023-05-12T23:24:36.058Z,16.72
2023-05-12T23:27:02.730Z,16.83
2023-05-12T23:29:29.606Z,16.81
2023-05-12T23:31:58.665Z,16.77
2023-05-12T23:34:25.779Z,16.77
2023-05-12T23:36:52.463Z,16.52
2023-05-12T23:39:19.092Z,16.61
2023-05-12T23:41:45.838Z,16.60
2023-05-12T23:44:12.842Z,16.65
2023-05-12T23:46:39.644Z,16.59
2023-05-12T23:49:06.400Z,16.58
2023-05-12T23:51:34.219Z,16.56
2023-05-12T23:54:00.844Z,16.51
2023-05-12T23:56:27.524Z,16.53
2023-05-12T23:58:54.225Z,16.46
